Terminal Aerodrome Forecast
Issued by NWS Wilmington, NC

Home | Current Version | Previous Version | Text Only | Print | Product List | Glossary On
Versions: 1 2 3 4 5 6 7 8 9 10 11 12 13 14
000
FTUS42 KILM 021733
TAFMYR
TAF
KMYR 021733Z 0218/0318 24010KT P6SM SCT040 SCT090
     FM030300 28010KT 6SM -SHRA VCTS BKN050CB
     FM030600 24007KT P6SM VCSH SCT060 SCT080 BKN200
     FM031300 26008KT P6SM SCT045 SCT120=

USA.gov is the U.S. government's official web portal to all federal, state and local government web resources and services.